sensor_id;sensor_type;location;lat;lon;timestamp;P1;durP1;ratioP1;P2;durP2;ratioP2
26435;SDS011;15351;52.408;16.826;2023-05-29T00:00:35;16.60;;;9.50;;
26435;SDS011;15351;52.408;16.826;2023-05-29T00:03:31;16.70;;;10.70;;
26435;SDS011;15351;52.408;16.826;2023-05-29T00:06:38;15.80;;;10.70;;
26435;SDS011;15351;52.408;16.826;2023-05-29T00:09:28;20.00;;;10.80;;
26435;SDS011;15351;52.408;16.826;2023-05-29T00:12:12;18.20;;;11.00;;
26435;SDS011;15351;52.408;16.826;2023-05-29T00:14:42;17.90;;;10.40;;
26435;SDS011;15351;52.408;16.826;2023-05-29T00:17:25;17.00;;;10.50;;
26435;SDS011;15351;52.408;16.826;2023-05-29T00:25:58;17.80;;;10.10;;
26435;SDS011;15351;52.408;16.826;2023-05-29T00:28:45;15.90;;;9.60;;
26435;SDS011;15351;52.408;16.826;2023-05-29T00:31:33;16.10;;;10.10;;
26435;SDS011;15351;52.408;16.826;2023-05-29T00:34:26;16.20;;;10.30;;
26435;SDS011;15351;52.408;16.826;2023-05-29T00:37:06;16.00;;;10.00;;
26435;SDS011;15351;52.408;16.826;2023-05-29T00:42:59;15.40;;;9.00;;
26435;SDS011;15351;52.408;16.826;2023-05-29T00:45:41;13.60;;;9.20;;
26435;SDS011;15351;52.408;16.826;2023-05-29T00:48:30;13.00;;;8.80;;
26435;SDS011;15351;52.408;16.826;2023-05-29T00:51:11;15.70;;;9.30;;
26435;SDS011;15351;52.408;16.826;2023-05-29T00:53:45;14.60;;;9.10;;
26435;SDS011;15351;52.408;16.826;2023-05-29T00:56:34;14.00;;;9.40;;
26435;SDS011;15351;52.408;16.826;2023-05-29T00:59:24;17.70;;;9.10;;
26435;SDS011;15351;52.408;16.826;2023-05-29T01:02:02;17.80;;;10.30;;
26435;SDS011;15351;52.408;16.826;2023-05-29T01:04:31;17.90;;;10.70;;
26435;SDS011;15351;52.408;16.826;2023-05-29T01:07:03;17.30;;;10.10;;
26435;SDS011;15351;52.408;16.826;2023-05-29T01:09:30;17.20;;;10.00;;
26435;SDS011;15351;52.408;16.826;2023-05-29T01:12:15;15.20;;;10.10;;
26435;SDS011;15351;52.408;16.826;2023-05-29T01:24:38;16.10;;;10.80;;
26435;SDS011;15351;52.408;16.826;2023-05-29T01:27:44;16.50;;;10.10;;
26435;SDS011;15351;52.408;16.826;2023-05-29T01:30:30;17.90;;;11.20;;
26435;SDS011;15351;52.408;16.826;2023-05-29T01:33:00;17.40;;;11.40;;
26435;SDS011;15351;52.408;16.826;2023-05-29T01:35:35;22.00;;;11.70;;
26435;SDS011;15351;52.408;16.826;2023-05-29T01:38:24;19.60;;;11.30;;
26435;SDS011;15351;52.408;16.826;2023-05-29T01:40:51;16.90;;;11.10;;
26435;SDS011;15351;52.408;16.826;2023-05-29T01:43:19;16.20;;;10.90;;
26435;SDS011;15351;52.408;16.826;2023-05-29T01:46:09;20.20;;;11.80;;
26435;SDS011;15351;52.408;16.826;2023-05-29T01:48:38;17.40;;;11.10;;
26435;SDS011;15351;52.408;16.826;2023-05-29T01:51:31;16.60;;;10.60;;
26435;SDS011;15351;52.408;16.826;2023-05-29T01:53:58;18.20;;;10.60;;
26435;SDS011;15351;52.408;16.826;2023-05-29T01:56:29;18.00;;;10.90;;
26435;SDS011;15351;52.408;16.826;2023-05-29T01:58:59;17.40;;;10.50;;
26435;SDS011;15351;52.408;16.826;2023-05-29T02:01:32;19.40;;;11.10;;
26435;SDS011;15351;52.408;16.826;2023-05-29T02:04:09;16.50;;;10.70;;
26435;SDS011;15351;52.408;16.826;2023-05-29T02:06:53;18.10;;;10.50;;
26435;SDS011;15351;52.408;16.826;2023-05-29T02:09:26;18.10;;;10.00;;
26435;SDS011;15351;52.408;16.826;2023-05-29T02:12:05;18.50;;;10.40;;
26435;SDS011;15351;52.408;16.826;2023-05-29T02:14:35;20.50;;;10.50;;
26435;SDS011;15351;52.408;16.826;2023-05-29T02:17:21;15.70;;;10.80;;
26435;SDS011;15351;52.408;16.826;2023-05-29T02:19:49;16.90;;;10.50;;
26435;SDS011;15351;52.408;16.826;2023-05-29T02:22:25;17.60;;;9.90;;
26435;SDS011;15351;52.408;16.826;2023-05-29T02:25:05;18.20;;;9.40;;
26435;SDS011;15351;52.408;16.826;2023-05-29T02:27:38;16.90;;;9.40;;
26435;SDS011;15351;52.408;16.826;2023-05-29T02:30:06;16.20;;;8.80;;
26435;SDS011;15351;52.408;16.826;2023-05-29T02:32:34;17.60;;;8.60;;
26435;SDS011;15351;52.408;16.826;2023-05-29T02:35:12;13.50;;;8.20;;
26435;SDS011;15351;52.408;16.826;2023-05-29T02:37:52;15.00;;;8.00;;
26435;SDS011;15351;52.408;16.826;2023-05-29T02:40:18;14.50;;;7.60;;
26435;SDS011;15351;52.408;16.826;2023-05-29T02:42:52;14.70;;;6.90;;
26435;SDS011;15351;52.408;16.826;2023-05-29T02:45:22;10.50;;;6.80;;
26435;SDS011;15351;52.408;16.826;2023-05-29T02:48:05;11.00;;;7.00;;
26435;SDS011;15351;52.408;16.826;2023-05-29T02:50:33;10.40;;;6.70;;
26435;SDS011;15351;52.408;16.826;2023-05-29T02:53:06;13.00;;;6.40;;
26435;SDS011;15351;52.408;16.826;2023-05-29T02:56:05;10.60;;;6.10;;
26435;SDS011;15351;52.408;16.826;2023-05-29T02:58:34;8.60;;;6.00;;
26435;SDS011;15351;52.408;16.826;2023-05-29T03:01:08;11.00;;;6.10;;
26435;SDS011;15351;52.408;16.826;2023-05-29T03:03:47;12.60;;;6.20;;
26435;SDS011;15351;52.408;16.826;2023-05-29T03:06:23;14.60;;;5.80;;
26435;SDS011;15351;52.408;16.826;2023-05-29T03:08:49;16.10;;;5.60;;
26435;SDS011;15351;52.408;16.826;2023-05-29T03:11:19;15.40;;;5.40;;
26435;SDS011;15351;52.408;16.826;2023-05-29T03:14:11;11.50;;;5.50;;
26435;SDS011;15351;52.408;16.826;2023-05-29T03:16:48;11.30;;;5.10;;
26435;SDS011;15351;52.408;16.826;2023-05-29T03:19:31;12.20;;;5.30;;
26435;SDS011;15351;52.408;16.826;2023-05-29T03:22:08;12.70;;;5.30;;
26435;SDS011;15351;52.408;16.826;2023-05-29T03:24:35;10.80;;;5.00;;
26435;SDS011;15351;52.408;16.826;2023-05-29T03:27:02;10.90;;;5.20;;
26435;SDS011;15351;52.408;16.826;2023-05-29T03:29:31;9.00;;;5.00;;
26435;SDS011;15351;52.408;16.826;2023-05-29T03:31:58;9.10;;;5.20;;
26435;SDS011;15351;52.408;16.826;2023-05-29T03:34:28;9.10;;;5.40;;
26435;SDS011;15351;52.408;16.826;2023-05-29T03:37:04;9.30;;;4.70;;
26435;SDS011;15351;52.408;16.826;2023-05-29T03:39:35;9.90;;;5.10;;
26435;SDS011;15351;52.408;16.826;2023-05-29T03:42:25;8.90;;;5.30;;
26435;SDS011;15351;52.408;16.826;2023-05-29T03:45:10;9.70;;;5.30;;
26435;SDS011;15351;52.408;16.826;2023-05-29T03:47:56;9.90;;;5.10;;
26435;SDS011;15351;52.408;16.826;2023-05-29T03:50:23;10.50;;;5.20;;
26435;SDS011;15351;52.408;16.826;2023-05-29T03:53:14;14.10;;;5.50;;
26435;SDS011;15351;52.408;16.826;2023-05-29T03:55:52;8.40;;;4.90;;
26435;SDS011;15351;52.408;16.826;2023-05-29T03:58:19;9.00;;;5.50;;
26435;SDS011;15351;52.408;16.826;2023-05-29T04:00:49;8.70;;;5.40;;
26435;SDS011;15351;52.408;16.826;2023-05-29T04:03:24;11.80;;;5.40;;
26435;SDS011;15351;52.408;16.826;2023-05-29T04:06:11;9.60;;;5.20;;
26435;SDS011;15351;52.408;16.826;2023-05-29T04:08:49;11.30;;;5.90;;
26435;SDS011;15351;52.408;16.826;2023-05-29T04:11:17;10.00;;;5.60;;
26435;SDS011;15351;52.408;16.826;2023-05-29T04:13:48;10.70;;;5.90;;
26435;SDS011;15351;52.408;16.826;2023-05-29T04:16:17;10.60;;;5.60;;
26435;SDS011;15351;52.408;16.826;2023-05-29T04:18:51;10.80;;;6.20;;
26435;SDS011;15351;52.408;16.826;2023-05-29T04:21:22;10.60;;;5.50;;
26435;SDS011;15351;52.408;16.826;2023-05-29T04:27:05;11.50;;;5.80;;
26435;SDS011;15351;52.408;16.826;2023-05-29T04:30:01;9.80;;;5.80;;
26435;SDS011;15351;52.408;16.826;2023-05-29T04:32:34;9.60;;;5.90;;
26435;SDS011;15351;52.408;16.826;2023-05-29T04:35:03;9.90;;;6.10;;
26435;SDS011;15351;52.408;16.826;2023-05-29T04:41:09;11.10;;;6.00;;
26435;SDS011;15351;52.408;16.826;2023-05-29T04:43:47;9.90;;;5.70;;
26435;SDS011;15351;52.408;16.826;2023-05-29T04:46:19;10.90;;;5.70;;
26435;SDS011;15351;52.408;16.826;2023-05-29T04:49:02;13.20;;;5.90;;
26435;SDS011;15351;52.408;16.826;2023-05-29T04:51:50;10.10;;;5.50;;
26435;SDS011;15351;52.408;16.826;2023-05-29T04:54:51;12.70;;;5.10;;
26435;SDS011;15351;52.408;16.826;2023-05-29T04:58:05;8.50;;;4.90;;
26435;SDS011;15351;52.408;16.826;2023-05-29T05:00:39;9.80;;;5.30;;
26435;SDS011;15351;52.408;16.826;2023-05-29T05:03:21;10.60;;;5.30;;
26435;SDS011;15351;52.408;16.826;2023-05-29T05:06:32;9.50;;;5.70;;
26435;SDS011;15351;52.408;16.826;2023-05-29T05:09:06;8.70;;;5.30;;
26435;SDS011;15351;52.408;16.826;2023-05-29T05:11:58;11.70;;;5.30;;
26435;SDS011;15351;52.408;16.826;2023-05-29T05:14:38;10.30;;;4.90;;
26435;SDS011;15351;52.408;16.826;2023-05-29T05:17:21;11.60;;;5.50;;
26435;SDS011;15351;52.408;16.826;2023-05-29T05:20:40;9.60;;;5.40;;
26435;SDS011;15351;52.408;16.826;2023-05-29T05:32:58;11.90;;;5.10;;
26435;SDS011;15351;52.408;16.826;2023-05-29T05:35:33;11.50;;;4.90;;
26435;SDS011;15351;52.408;16.826;2023-05-29T05:38:23;11.70;;;5.20;;
26435;SDS011;15351;52.408;16.826;2023-05-29T05:41:09;9.00;;;4.50;;
26435;SDS011;15351;52.408;16.826;2023-05-29T05:43:54;12.30;;;5.10;;
26435;SDS011;15351;52.408;16.826;2023-05-29T05:46:50;10.00;;;4.90;;
26435;SDS011;15351;52.408;16.826;2023-05-29T05:49:43;9.40;;;4.50;;
26435;SDS011;15351;52.408;16.826;2023-05-29T05:52:20;12.50;;;5.10;;
26435;SDS011;15351;52.408;16.826;2023-05-29T05:55:01;18.50;;;5.40;;
26435;SDS011;15351;52.408;16.826;2023-05-29T06:00:52;15.10;;;5.40;;
26435;SDS011;15351;52.408;16.826;2023-05-29T06:03:24;16.70;;;5.70;;
26435;SDS011;15351;52.408;16.826;2023-05-29T06:06:17;14.00;;;5.10;;
26435;SDS011;15351;52.408;16.826;2023-05-29T06:08:51;15.30;;;5.40;;
26435;SDS011;15351;52.408;16.826;2023-05-29T06:11:18;14.80;;;5.20;;
26435;SDS011;15351;52.408;16.826;2023-05-29T06:13:45;14.70;;;5.00;;
26435;SDS011;15351;52.408;16.826;2023-05-29T06:16:32;23.60;;;5.60;;
26435;SDS011;15351;52.408;16.826;2023-05-29T06:19:01;19.20;;;4.80;;
26435;SDS011;15351;52.408;16.826;2023-05-29T06:21:34;14.80;;;4.80;;
26435;SDS011;15351;52.408;16.826;2023-05-29T06:24:12;9.70;;;4.60;;
26435;SDS011;15351;52.408;16.826;2023-05-29T06:26:43;9.50;;;4.50;;
26435;SDS011;15351;52.408;16.826;2023-05-29T06:29:10;10.40;;;4.40;;
26435;SDS011;15351;52.408;16.826;2023-05-29T06:31:36;11.00;;;4.30;;
26435;SDS011;15351;52.408;16.826;2023-05-29T06:34:07;14.50;;;4.70;;
26435;SDS011;15351;52.408;16.826;2023-05-29T06:36:38;17.70;;;5.00;;
26435;SDS011;15351;52.408;16.826;2023-05-29T06:39:14;9.20;;;4.60;;
26435;SDS011;15351;52.408;16.826;2023-05-29T06:41:53;11.10;;;4.40;;
26435;SDS011;15351;52.408;16.826;2023-05-29T06:44:22;13.30;;;4.60;;
26435;SDS011;15351;52.408;16.826;2023-05-29T06:46:59;17.40;;;5.00;;
26435;SDS011;15351;52.408;16.826;2023-05-29T06:49:29;12.40;;;4.70;;
26435;SDS011;15351;52.408;16.826;2023-05-29T06:52:02;13.80;;;5.10;;
26435;SDS011;15351;52.408;16.826;2023-05-29T06:54:50;10.10;;;4.30;;
26435;SDS011;15351;52.408;16.826;2023-05-29T06:57:18;15.30;;;5.70;;
26435;SDS011;15351;52.408;16.826;2023-05-29T06:59:54;28.40;;;5.70;;
26435;SDS011;15351;52.408;16.826;2023-05-29T07:02:20;18.40;;;5.10;;
26435;SDS011;15351;52.408;16.826;2023-05-29T07:04:47;10.60;;;4.80;;
26435;SDS011;15351;52.408;16.826;2023-05-29T07:07:35;13.00;;;4.80;;
26435;SDS011;15351;52.408;16.826;2023-05-29T07:10:09;9.70;;;4.80;;
26435;SDS011;15351;52.408;16.826;2023-05-29T07:12:38;11.70;;;4.50;;
26435;SDS011;15351;52.408;16.826;2023-05-29T07:15:06;10.40;;;4.40;;
26435;SDS011;15351;52.408;16.826;2023-05-29T07:17:37;30.10;;;6.00;;
26435;SDS011;15351;52.408;16.826;2023-05-29T07:20:10;17.60;;;4.40;;
26435;SDS011;15351;52.408;16.826;2023-05-29T07:22:47;7.90;;;4.40;;
26435;SDS011;15351;52.408;16.826;2023-05-29T07:25:13;10.60;;;4.30;;
26435;SDS011;15351;52.408;16.826;2023-05-29T07:27:45;9.10;;;4.20;;
26435;SDS011;15351;52.408;16.826;2023-05-29T07:30:20;13.10;;;4.30;;
26435;SDS011;15351;52.408;16.826;2023-05-29T07:32:47;13.50;;;4.20;;
26435;SDS011;15351;52.408;16.826;2023-05-29T07:35:20;7.70;;;4.00;;
26435;SDS011;15351;52.408;16.826;2023-05-29T07:38:03;7.90;;;3.90;;
26435;SDS011;15351;52.408;16.826;2023-05-29T07:40:33;11.50;;;4.40;;
26435;SDS011;15351;52.408;16.826;2023-05-29T07:43:12;10.90;;;4.10;;
26435;SDS011;15351;52.408;16.826;2023-05-29T07:45:52;8.50;;;4.10;;
26435;SDS011;15351;52.408;16.826;2023-05-29T07:48:19;9.00;;;3.80;;
26435;SDS011;15351;52.408;16.826;2023-05-29T07:50:47;9.40;;;4.10;;
26435;SDS011;15351;52.408;16.826;2023-05-29T07:53:26;8.50;;;4.00;;
26435;SDS011;15351;52.408;16.826;2023-05-29T07:55:55;9.10;;;3.90;;
26435;SDS011;15351;52.408;16.826;2023-05-29T07:58:29;9.20;;;3.70;;
26435;SDS011;15351;52.408;16.826;2023-05-29T08:01:07;14.50;;;4.10;;
26435;SDS011;15351;52.408;16.826;2023-05-29T08:04:05;8.00;;;3.90;;
26435;SDS011;15351;52.408;16.826;2023-05-29T08:06:32;8.10;;;3.90;;
26435;SDS011;15351;52.408;16.826;2023-05-29T08:09:17;9.10;;;3.80;;
26435;SDS011;15351;52.408;16.826;2023-05-29T08:11:50;6.30;;;3.10;;
26435;SDS011;15351;52.408;16.826;2023-05-29T08:14:17;6.70;;;3.30;;
26435;SDS011;15351;52.408;16.826;2023-05-29T08:17:01;6.10;;;3.40;;
26435;SDS011;15351;52.408;16.826;2023-05-29T08:19:28;9.50;;;3.80;;
26435;SDS011;15351;52.408;16.826;2023-05-29T08:21:57;8.60;;;3.60;;
26435;SDS011;15351;52.408;16.826;2023-05-29T08:24:24;7.80;;;3.60;;
26435;SDS011;15351;52.408;16.826;2023-05-29T08:26:54;7.80;;;3.70;;
26435;SDS011;15351;52.408;16.826;2023-05-29T08:29:21;5.90;;;3.20;;
26435;SDS011;15351;52.408;16.826;2023-05-29T08:31:56;11.20;;;3.60;;
26435;SDS011;15351;52.408;16.826;2023-05-29T08:34:22;7.40;;;3.40;;
26435;SDS011;15351;52.408;16.826;2023-05-29T08:36:49;6.60;;;3.30;;
26435;SDS011;15351;52.408;16.826;2023-05-29T08:39:23;12.50;;;3.30;;
26435;SDS011;15351;52.408;16.826;2023-05-29T08:42:40;6.10;;;3.20;;
26435;SDS011;15351;52.408;16.826;2023-05-29T08:45:26;7.10;;;3.30;;
26435;SDS011;15351;52.408;16.826;2023-05-29T08:47:56;5.60;;;3.10;;
26435;SDS011;15351;52.408;16.826;2023-05-29T08:50:32;6.90;;;3.30;;
26435;SDS011;15351;52.408;16.826;2023-05-29T08:53:07;6.20;;;3.40;;
26435;SDS011;15351;52.408;16.826;2023-05-29T08:55:39;6.90;;;3.10;;
26435;SDS011;15351;52.408;16.826;2023-05-29T08:58:20;5.50;;;2.90;;
26435;SDS011;15351;52.408;16.826;2023-05-29T09:00:49;8.30;;;3.40;;
26435;SDS011;15351;52.408;16.826;2023-05-29T09:03:17;14.10;;;4.00;;
26435;SDS011;15351;52.408;16.826;2023-05-29T09:05:46;7.70;;;3.40;;
26435;SDS011;15351;52.408;16.826;2023-05-29T09:08:23;7.90;;;3.50;;
26435;SDS011;15351;52.408;16.826;2023-05-29T09:10:52;6.60;;;3.60;;
26435;SDS011;15351;52.408;16.826;2023-05-29T09:13:19;15.20;;;3.90;;
26435;SDS011;15351;52.408;16.826;2023-05-29T09:15:46;11.50;;;3.60;;
26435;SDS011;15351;52.408;16.826;2023-05-29T09:18:33;43.80;;;5.90;;
26435;SDS011;15351;52.408;16.826;2023-05-29T09:21:00;12.40;;;3.60;;
26435;SDS011;15351;52.408;16.826;2023-05-29T09:23:36;6.80;;;3.30;;
26435;SDS011;15351;52.408;16.826;2023-05-29T09:26:06;8.70;;;3.40;;
26435;SDS011;15351;52.408;16.826;2023-05-29T09:28:39;9.20;;;3.40;;
26435;SDS011;15351;52.408;16.826;2023-05-29T09:31:15;7.90;;;3.30;;
26435;SDS011;15351;52.408;16.826;2023-05-29T09:33:49;6.50;;;3.20;;
26435;SDS011;15351;52.408;16.826;2023-05-29T09:36:24;8.30;;;3.50;;
26435;SDS011;15351;52.408;16.826;2023-05-29T09:39:01;5.80;;;3.30;;
26435;SDS011;15351;52.408;16.826;2023-05-29T09:41:30;6.60;;;3.40;;
26435;SDS011;15351;52.408;16.826;2023-05-29T09:44:02;7.10;;;3.50;;
26435;SDS011;15351;52.408;16.826;2023-05-29T09:46:33;10.00;;;3.50;;
26435;SDS011;15351;52.408;16.826;2023-05-29T09:49:02;6.90;;;3.30;;
26435;SDS011;15351;52.408;16.826;2023-05-29T09:51:30;6.80;;;3.40;;
26435;SDS011;15351;52.408;16.826;2023-05-29T09:54:15;6.60;;;3.10;;
26435;SDS011;15351;52.408;16.826;2023-05-29T09:56:48;55.70;;;6.50;;
26435;SDS011;15351;52.408;16.826;2023-05-29T09:59:31;9.20;;;3.30;;
26435;SDS011;15351;52.408;16.826;2023-05-29T10:02:09;7.40;;;3.20;;
26435;SDS011;15351;52.408;16.826;2023-05-29T10:04:39;7.00;;;3.40;;
26435;SDS011;15351;52.408;16.826;2023-05-29T10:07:22;7.50;;;3.60;;
26435;SDS011;15351;52.408;16.826;2023-05-29T10:10:03;8.10;;;3.60;;
26435;SDS011;15351;52.408;16.826;2023-05-29T10:12:35;7.50;;;3.40;;
26435;SDS011;15351;52.408;16.826;2023-05-29T10:15:11;7.30;;;3.30;;
26435;SDS011;15351;52.408;16.826;2023-05-29T10:20:49;4.90;;;3.20;;
26435;SDS011;15351;52.408;16.826;2023-05-29T10:23:22;6.50;;;3.60;;
26435;SDS011;15351;52.408;16.826;2023-05-29T10:25:53;9.40;;;3.40;;
26435;SDS011;15351;52.408;16.826;2023-05-29T10:28:29;11.40;;;3.60;;
26435;SDS011;15351;52.408;16.826;2023-05-29T10:31:38;7.00;;;3.10;;
26435;SDS011;15351;52.408;16.826;2023-05-29T10:34:18;7.10;;;3.10;;
26435;SDS011;15351;52.408;16.826;2023-05-29T10:37:02;5.70;;;3.20;;
26435;SDS011;15351;52.408;16.826;2023-05-29T10:40:02;7.60;;;3.10;;
26435;SDS011;15351;52.408;16.826;2023-05-29T10:42:49;8.00;;;3.30;;
26435;SDS011;15351;52.408;16.826;2023-05-29T10:50:52;6.40;;;3.20;;
26435;SDS011;15351;52.408;16.826;2023-05-29T10:54:10;5.40;;;3.10;;
26435;SDS011;15351;52.408;16.826;2023-05-29T10:56:59;7.20;;;3.00;;
26435;SDS011;15351;52.408;16.826;2023-05-29T11:00:24;5.40;;;3.00;;
26435;SDS011;15351;52.408;16.826;2023-05-29T11:07:35;7.40;;;3.10;;
26435;SDS011;15351;52.408;16.826;2023-05-29T11:11:36;11.80;;;3.60;;
26435;SDS011;15351;52.408;16.826;2023-05-29T11:18:08;9.90;;;3.30;;
26435;SDS011;15351;52.408;16.826;2023-05-29T11:24:33;5.50;;;3.10;;
26435;SDS011;15351;52.408;16.826;2023-05-29T11:27:14;5.00;;;3.20;;
26435;SDS011;15351;52.408;16.826;2023-05-29T11:36:51;7.70;;;3.40;;
26435;SDS011;15351;52.408;16.826;2023-05-29T11:42:53;7.50;;;3.40;;
26435;SDS011;15351;52.408;16.826;2023-05-29T11:46:13;7.60;;;3.40;;
26435;SDS011;15351;52.408;16.826;2023-05-29T11:49:33;5.60;;;3.50;;
26435;SDS011;15351;52.408;16.826;2023-05-29T11:52:29;8.40;;;4.50;;
26435;SDS011;15351;52.408;16.826;2023-05-29T11:58:58;7.80;;;3.80;;
26435;SDS011;15351;52.408;16.826;2023-05-29T12:01:45;7.10;;;3.40;;
26435;SDS011;15351;52.408;16.826;2023-05-29T12:07:52;5.60;;;2.90;;
26435;SDS011;15351;52.408;16.826;2023-05-29T12:17:51;5.80;;;2.90;;
26435;SDS011;15351;52.408;16.826;2023-05-29T12:21:19;5.90;;;3.10;;
26435;SDS011;15351;52.408;16.826;2023-05-29T12:28:15;8.20;;;3.10;;
26435;SDS011;15351;52.408;16.826;2023-05-29T12:31:11;7.30;;;3.10;;
26435;SDS011;15351;52.408;16.826;2023-05-29T12:41:00;11.40;;;3.10;;
26435;SDS011;15351;52.408;16.826;2023-05-29T12:47:25;20.00;;;4.10;;
26435;SDS011;15351;52.408;16.826;2023-05-29T12:54:16;7.30;;;3.20;;
26435;SDS011;15351;52.408;16.826;2023-05-29T12:57:35;6.90;;;2.90;;
26435;SDS011;15351;52.408;16.826;2023-05-29T13:03:20;8.30;;;3.10;;
26435;SDS011;15351;52.408;16.826;2023-05-29T13:06:15;8.30;;;3.00;;
26435;SDS011;15351;52.408;16.826;2023-05-29T13:08:48;5.70;;;3.00;;
26435;SDS011;15351;52.408;16.826;2023-05-29T13:11:55;7.40;;;2.90;;
26435;SDS011;15351;52.408;16.826;2023-05-29T13:14:23;5.50;;;3.00;;
26435;SDS011;15351;52.408;16.826;2023-05-29T13:16:54;8.50;;;3.00;;
26435;SDS011;15351;52.408;16.826;2023-05-29T13:19:55;6.40;;;3.00;;
26435;SDS011;15351;52.408;16.826;2023-05-29T13:22:23;4.70;;;2.90;;
26435;SDS011;15351;52.408;16.826;2023-05-29T13:25:21;4.50;;;2.70;;
26435;SDS011;15351;52.408;16.826;2023-05-29T13:27:53;5.50;;;3.00;;
26435;SDS011;15351;52.408;16.826;2023-05-29T13:36:57;6.20;;;2.80;;
26435;SDS011;15351;52.408;16.826;2023-05-29T13:39:27;6.50;;;2.80;;
26435;SDS011;15351;52.408;16.826;2023-05-29T13:42:11;11.30;;;3.40;;
26435;SDS011;15351;52.408;16.826;2023-05-29T13:45:42;9.10;;;3.40;;
26435;SDS011;15351;52.408;16.826;2023-05-29T13:48:14;10.40;;;3.50;;
26435;SDS011;15351;52.408;16.826;2023-05-29T13:51:18;6.10;;;2.90;;
26435;SDS011;15351;52.408;16.826;2023-05-29T13:54:52;11.60;;;3.30;;
26435;SDS011;15351;52.408;16.826;2023-05-29T13:57:36;10.10;;;3.40;;
26435;SDS011;15351;52.408;16.826;2023-05-29T14:00:09;13.90;;;3.90;;
26435;SDS011;15351;52.408;16.826;2023-05-29T14:02:49;10.40;;;3.20;;
26435;SDS011;15351;52.408;16.826;2023-05-29T14:06:13;10.40;;;3.20;;
26435;SDS011;15351;52.408;16.826;2023-05-29T14:08:42;14.10;;;5.90;;
26435;SDS011;15351;52.408;16.826;2023-05-29T14:18:49;9.20;;;4.00;;
26435;SDS011;15351;52.408;16.826;2023-05-29T14:21:37;5.30;;;3.00;;
26435;SDS011;15351;52.408;16.826;2023-05-29T14:24:50;8.10;;;4.20;;
26435;SDS011;15351;52.408;16.826;2023-05-29T14:30:47;5.40;;;2.90;;
26435;SDS011;15351;52.408;16.826;2023-05-29T14:33:16;6.10;;;2.90;;
26435;SDS011;15351;52.408;16.826;2023-05-29T14:44:10;6.30;;;3.00;;
26435;SDS011;15351;52.408;16.826;2023-05-29T14:50:26;4.00;;;2.90;;
26435;SDS011;15351;52.408;16.826;2023-05-29T14:52:54;5.90;;;2.90;;
26435;SDS011;15351;52.408;16.826;2023-05-29T14:56:05;4.50;;;2.70;;
26435;SDS011;15351;52.408;16.826;2023-05-29T14:59:23;5.00;;;2.80;;
26435;SDS011;15351;52.408;16.826;2023-05-29T15:06:26;4.20;;;2.80;;
26435;SDS011;15351;52.408;16.826;2023-05-29T15:09:45;6.50;;;3.70;;
26435;SDS011;15351;52.408;16.826;2023-05-29T15:13:00;8.30;;;5.70;;
26435;SDS011;15351;52.408;16.826;2023-05-29T15:16:35;5.60;;;3.30;;
26435;SDS011;15351;52.408;16.826;2023-05-29T15:23:17;5.90;;;4.40;;
26435;SDS011;15351;52.408;16.826;2023-05-29T15:27:00;5.20;;;3.10;;
26435;SDS011;15351;52.408;16.826;2023-05-29T15:33:57;5.80;;;3.00;;
26435;SDS011;15351;52.408;16.826;2023-05-29T15:37:46;5.20;;;2.60;;
26435;SDS011;15351;52.408;16.826;2023-05-29T15:41:08;13.80;;;2.90;;
26435;SDS011;15351;52.408;16.826;2023-05-29T15:44:10;6.80;;;2.80;;
26435;SDS011;15351;52.408;16.826;2023-05-29T15:50:32;3.80;;;2.60;;
26435;SDS011;15351;52.408;16.826;2023-05-29T15:53:50;9.20;;;3.00;;
26435;SDS011;15351;52.408;16.826;2023-05-29T15:56:49;6.70;;;2.90;;
26435;SDS011;15351;52.408;16.826;2023-05-29T16:00:01;3.50;;;2.50;;
26435;SDS011;15351;52.408;16.826;2023-05-29T16:07:39;8.00;;;3.00;;
26435;SDS011;15351;52.408;16.826;2023-05-29T16:10:58;5.30;;;2.80;;
26435;SDS011;15351;52.408;16.826;2023-05-29T16:13:44;5.80;;;3.00;;
26435;SDS011;15351;52.408;16.826;2023-05-29T16:16:12;5.90;;;2.80;;
26435;SDS011;15351;52.408;16.826;2023-05-29T16:19:04;6.20;;;2.60;;
26435;SDS011;15351;52.408;16.826;2023-05-29T16:22:02;5.00;;;2.80;;
26435;SDS011;15351;52.408;16.826;2023-05-29T16:24:48;7.60;;;3.30;;
26435;SDS011;15351;52.408;16.826;2023-05-29T16:27:14;7.10;;;3.20;;
26435;SDS011;15351;52.408;16.826;2023-05-29T16:29:41;5.20;;;2.80;;
26435;SDS011;15351;52.408;16.826;2023-05-29T16:32:18;5.40;;;2.70;;
26435;SDS011;15351;52.408;16.826;2023-05-29T16:34:46;5.40;;;2.80;;
26435;SDS011;15351;52.408;16.826;2023-05-29T16:37:21;5.70;;;2.80;;
26435;SDS011;15351;52.408;16.826;2023-05-29T16:39:48;5.50;;;2.60;;
26435;SDS011;15351;52.408;16.826;2023-05-29T16:42:15;6.00;;;2.60;;
26435;SDS011;15351;52.408;16.826;2023-05-29T16:44:41;6.10;;;2.70;;
26435;SDS011;15351;52.408;16.826;2023-05-29T16:47:31;6.70;;;2.70;;
26435;SDS011;15351;52.408;16.826;2023-05-29T16:50:17;6.50;;;3.00;;
26435;SDS011;15351;52.408;16.826;2023-05-29T16:56:01;4.80;;;3.10;;
26435;SDS011;15351;52.408;16.826;2023-05-29T16:58:31;7.70;;;4.40;;
26435;SDS011;15351;52.408;16.826;2023-05-29T17:01:27;8.10;;;4.50;;
26435;SDS011;15351;52.408;16.826;2023-05-29T17:04:39;7.10;;;3.90;;
26435;SDS011;15351;52.408;16.826;2023-05-29T17:07:09;8.20;;;3.90;;
26435;SDS011;15351;52.408;16.826;2023-05-29T17:09:44;6.30;;;4.30;;
26435;SDS011;15351;52.408;16.826;2023-05-29T17:12:49;7.40;;;4.10;;
26435;SDS011;15351;52.408;16.826;2023-05-29T17:15:28;6.30;;;3.40;;
26435;SDS011;15351;52.408;16.826;2023-05-29T17:18:01;7.80;;;3.20;;
26435;SDS011;15351;52.408;16.826;2023-05-29T17:20:31;7.30;;;2.90;;
26435;SDS011;15351;52.408;16.826;2023-05-29T17:23:07;7.10;;;3.00;;
26435;SDS011;15351;52.408;16.826;2023-05-29T17:25:35;7.50;;;2.90;;
26435;SDS011;15351;52.408;16.826;2023-05-29T17:28:31;8.10;;;3.20;;
26435;SDS011;15351;52.408;16.826;2023-05-29T17:31:13;7.00;;;2.90;;
26435;SDS011;15351;52.408;16.826;2023-05-29T17:33:53;6.20;;;2.60;;
26435;SDS011;15351;52.408;16.826;2023-05-29T17:36:19;5.90;;;2.70;;
26435;SDS011;15351;52.408;16.826;2023-05-29T17:38:58;4.30;;;2.40;;
26435;SDS011;15351;52.408;16.826;2023-05-29T17:41:33;5.90;;;2.80;;
26435;SDS011;15351;52.408;16.826;2023-05-29T17:44:12;7.30;;;3.10;;
26435;SDS011;15351;52.408;16.826;2023-05-29T17:46:42;5.70;;;2.60;;
26435;SDS011;15351;52.408;16.826;2023-05-29T17:49:34;7.90;;;2.80;;
26435;SDS011;15351;52.408;16.826;2023-05-29T17:52:04;7.20;;;2.90;;
26435;SDS011;15351;52.408;16.826;2023-05-29T17:57:20;5.90;;;2.70;;
26435;SDS011;15351;52.408;16.826;2023-05-29T17:59:58;9.20;;;2.80;;
26435;SDS011;15351;52.408;16.826;2023-05-29T18:02:25;10.80;;;2.90;;
26435;SDS011;15351;52.408;16.826;2023-05-29T18:04:52;10.30;;;3.00;;
26435;SDS011;15351;52.408;16.826;2023-05-29T18:07:28;8.10;;;3.00;;
26435;SDS011;15351;52.408;16.826;2023-05-29T18:10:32;5.60;;;2.80;;
26435;SDS011;15351;52.408;16.826;2023-05-29T18:13:13;8.40;;;2.90;;
26435;SDS011;15351;52.408;16.826;2023-05-29T18:15:40;6.80;;;2.60;;
26435;SDS011;15351;52.408;16.826;2023-05-29T18:18:12;14.00;;;3.40;;
26435;SDS011;15351;52.408;16.826;2023-05-29T18:24:07;7.10;;;3.10;;
26435;SDS011;15351;52.408;16.826;2023-05-29T18:26:46;6.90;;;2.80;;
26435;SDS011;15351;52.408;16.826;2023-05-29T18:29:18;7.60;;;3.00;;
26435;SDS011;15351;52.408;16.826;2023-05-29T18:31:49;8.10;;;3.10;;
26435;SDS011;15351;52.408;16.826;2023-05-29T18:34:20;10.40;;;3.20;;